sensor_id;sensor_type;location;lat;lon;timestamp;P1;durP1;ratioP1;P2;durP2;ratioP2
43042;SDS011;28667;50.758;6.096;2023-07-02T00:01:15;6.60;;;2.97;;
43042;SDS011;28667;50.758;6.096;2023-07-02T00:03:40;5.78;;;2.65;;
43042;SDS011;28667;50.758;6.096;2023-07-02T00:06:06;6.20;;;3.03;;
43042;SDS011;28667;50.758;6.096;2023-07-02T00:08:32;5.32;;;2.28;;
43042;SDS011;28667;50.758;6.096;2023-07-02T00:10:57;9.35;;;2.95;;
43042;SDS011;28667;50.758;6.096;2023-07-02T00:13:23;5.32;;;2.90;;
43042;SDS011;28667;50.758;6.096;2023-07-02T00:15:49;12.50;;;3.38;;
43042;SDS011;28667;50.758;6.096;2023-07-02T00:18:14;8.23;;;3.53;;
43042;SDS011;28667;50.758;6.096;2023-07-02T00:20:41;8.80;;;3.85;;
43042;SDS011;28667;50.758;6.096;2023-07-02T00:23:07;7.80;;;3.53;;
43042;SDS011;28667;50.758;6.096;2023-07-02T00:25:35;7.72;;;3.45;;
43042;SDS011;28667;50.758;6.096;2023-07-02T00:28:02;8.88;;;3.33;;
43042;SDS011;28667;50.758;6.096;2023-07-02T00:30:28;7.10;;;3.15;;
43042;SDS011;28667;50.758;6.096;2023-07-02T00:32:55;10.43;;;3.80;;
43042;SDS011;28667;50.758;6.096;2023-07-02T00:35:21;12.40;;;4.20;;
43042;SDS011;28667;50.758;6.096;2023-07-02T00:37:48;8.75;;;3.65;;
43042;SDS011;28667;50.758;6.096;2023-07-02T00:40:14;9.90;;;3.88;;
43042;SDS011;28667;50.758;6.096;2023-07-02T00:42:40;8.82;;;4.25;;
43042;SDS011;28667;50.758;6.096;2023-07-02T00:45:06;11.00;;;4.40;;
43042;SDS011;28667;50.758;6.096;2023-07-02T00:47:32;13.23;;;4.13;;
43042;SDS011;28667;50.758;6.096;2023-07-02T00:49:59;10.48;;;3.85;;
43042;SDS011;28667;50.758;6.096;2023-07-02T00:52:26;7.35;;;4.50;;
43042;SDS011;28667;50.758;6.096;2023-07-02T00:54:52;8.20;;;3.97;;
43042;SDS011;28667;50.758;6.096;2023-07-02T00:57:18;9.27;;;3.80;;
43042;SDS011;28667;50.758;6.096;2023-07-02T00:59:44;11.48;;;4.45;;
43042;SDS011;28667;50.758;6.096;2023-07-02T01:02:10;10.02;;;5.40;;
43042;SDS011;28667;50.758;6.096;2023-07-02T01:04:38;10.43;;;4.90;;
43042;SDS011;28667;50.758;6.096;2023-07-02T01:07:04;13.45;;;4.82;;
43042;SDS011;28667;50.758;6.096;2023-07-02T01:09:35;9.10;;;4.50;;
43042;SDS011;28667;50.758;6.096;2023-07-02T01:12:05;14.85;;;4.88;;
43042;SDS011;28667;50.758;6.096;2023-07-02T01:14:38;6.68;;;3.90;;
43042;SDS011;28667;50.758;6.096;2023-07-02T01:17:06;9.35;;;5.13;;
43042;SDS011;28667;50.758;6.096;2023-07-02T01:19:44;11.80;;;4.90;;
43042;SDS011;28667;50.758;6.096;2023-07-02T01:22:11;11.35;;;4.85;;
43042;SDS011;28667;50.758;6.096;2023-07-02T01:24:41;11.68;;;5.32;;
43042;SDS011;28667;50.758;6.096;2023-07-02T01:27:07;12.38;;;4.32;;
43042;SDS011;28667;50.758;6.096;2023-07-02T01:29:32;10.57;;;5.03;;
43042;SDS011;28667;50.758;6.096;2023-07-02T01:32:01;12.07;;;4.93;;
43042;SDS011;28667;50.758;6.096;2023-07-02T01:34:28;11.95;;;5.13;;
43042;SDS011;28667;50.758;6.096;2023-07-02T01:36:54;12.38;;;4.53;;
43042;SDS011;28667;50.758;6.096;2023-07-02T01:39:19;20.48;;;5.90;;
43042;SDS011;28667;50.758;6.096;2023-07-02T01:41:49;19.88;;;6.57;;
43042;SDS011;28667;50.758;6.096;2023-07-02T01:44:20;18.52;;;5.70;;
43042;SDS011;28667;50.758;6.096;2023-07-02T01:46:46;10.50;;;5.32;;
43042;SDS011;28667;50.758;6.096;2023-07-02T01:49:17;11.38;;;5.22;;
43042;SDS011;28667;50.758;6.096;2023-07-02T01:51:53;9.63;;;5.22;;
43042;SDS011;28667;50.758;6.096;2023-07-02T01:54:20;12.05;;;4.78;;
43042;SDS011;28667;50.758;6.096;2023-07-02T01:56:47;14.85;;;5.75;;
43042;SDS011;28667;50.758;6.096;2023-07-02T01:59:14;14.32;;;6.18;;
43042;SDS011;28667;50.758;6.096;2023-07-02T02:01:40;15.45;;;5.55;;
43042;SDS011;28667;50.758;6.096;2023-07-02T02:04:09;16.33;;;6.05;;
43042;SDS011;28667;50.758;6.096;2023-07-02T02:06:36;18.73;;;5.93;;
43042;SDS011;28667;50.758;6.096;2023-07-02T02:09:03;14.02;;;4.85;;
43042;SDS011;28667;50.758;6.096;2023-07-02T02:11:29;14.30;;;6.47;;
43042;SDS011;28667;50.758;6.096;2023-07-02T02:13:56;16.00;;;6.45;;
43042;SDS011;28667;50.758;6.096;2023-07-02T02:16:22;14.10;;;6.15;;
43042;SDS011;28667;50.758;6.096;2023-07-02T02:18:48;19.83;;;6.25;;
43042;SDS011;28667;50.758;6.096;2023-07-02T02:21:17;15.75;;;6.57;;
43042;SDS011;28667;50.758;6.096;2023-07-02T02:23:43;14.27;;;6.15;;
43042;SDS011;28667;50.758;6.096;2023-07-02T02:26:09;14.00;;;6.07;;
43042;SDS011;28667;50.758;6.096;2023-07-02T02:28:35;14.73;;;6.50;;
43042;SDS011;28667;50.758;6.096;2023-07-02T02:31:01;15.02;;;6.53;;
43042;SDS011;28667;50.758;6.096;2023-07-02T02:33:29;14.27;;;5.85;;
43042;SDS011;28667;50.758;6.096;2023-07-02T02:35:55;22.15;;;6.75;;
43042;SDS011;28667;50.758;6.096;2023-07-02T02:38:22;19.90;;;7.43;;
43042;SDS011;28667;50.758;6.096;2023-07-02T02:40:48;13.52;;;5.95;;
43042;SDS011;28667;50.758;6.096;2023-07-02T02:43:17;16.05;;;6.70;;
43042;SDS011;28667;50.758;6.096;2023-07-02T02:45:44;15.05;;;7.43;;
43042;SDS011;28667;50.758;6.096;2023-07-02T02:48:10;21.90;;;7.65;;
43042;SDS011;28667;50.758;6.096;2023-07-02T02:50:36;18.23;;;7.35;;
43042;SDS011;28667;50.758;6.096;2023-07-02T02:53:09;20.83;;;7.78;;
43042;SDS011;28667;50.758;6.096;2023-07-02T02:55:35;15.27;;;7.53;;
43042;SDS011;28667;50.758;6.096;2023-07-02T02:58:01;17.58;;;6.60;;
43042;SDS011;28667;50.758;6.096;2023-07-02T03:00:27;15.18;;;6.43;;
43042;SDS011;28667;50.758;6.096;2023-07-02T03:02:53;16.52;;;7.18;;
43042;SDS011;28667;50.758;6.096;2023-07-02T03:05:21;17.65;;;7.45;;
43042;SDS011;28667;50.758;6.096;2023-07-02T03:07:47;26.45;;;7.80;;
43042;SDS011;28667;50.758;6.096;2023-07-02T03:10:13;25.20;;;7.50;;
43042;SDS011;28667;50.758;6.096;2023-07-02T03:12:39;16.50;;;7.07;;
43042;SDS011;28667;50.758;6.096;2023-07-02T03:15:04;21.05;;;7.32;;
43042;SDS011;28667;50.758;6.096;2023-07-02T03:17:30;16.40;;;7.70;;
43042;SDS011;28667;50.758;6.096;2023-07-02T03:19:56;20.95;;;7.32;;
43042;SDS011;28667;50.758;6.096;2023-07-02T03:22:22;19.13;;;7.75;;
43042;SDS011;28667;50.758;6.096;2023-07-02T03:24:47;17.67;;;7.13;;
43042;SDS011;28667;50.758;6.096;2023-07-02T03:27:13;25.45;;;7.85;;
43042;SDS011;28667;50.758;6.096;2023-07-02T03:29:39;19.83;;;7.82;;
43042;SDS011;28667;50.758;6.096;2023-07-02T03:32:05;17.95;;;7.20;;
43042;SDS011;28667;50.758;6.096;2023-07-02T03:34:30;22.65;;;8.73;;
43042;SDS011;28667;50.758;6.096;2023-07-02T03:36:56;20.38;;;7.40;;
43042;SDS011;28667;50.758;6.096;2023-07-02T03:39:22;20.50;;;8.48;;
43042;SDS011;28667;50.758;6.096;2023-07-02T03:41:48;19.80;;;7.60;;
43042;SDS011;28667;50.758;6.096;2023-07-02T03:44:13;21.85;;;8.32;;
43042;SDS011;28667;50.758;6.096;2023-07-02T03:46:39;24.30;;;8.25;;
43042;SDS011;28667;50.758;6.096;2023-07-02T03:49:05;15.45;;;7.18;;
43042;SDS011;28667;50.758;6.096;2023-07-02T03:51:31;21.25;;;7.63;;
43042;SDS011;28667;50.758;6.096;2023-07-02T03:54:00;17.08;;;7.05;;
43042;SDS011;28667;50.758;6.096;2023-07-02T03:56:25;23.77;;;8.25;;
43042;SDS011;28667;50.758;6.096;2023-07-02T03:58:51;16.35;;;7.50;;
43042;SDS011;28667;50.758;6.096;2023-07-02T04:01:17;25.33;;;9.43;;
43042;SDS011;28667;50.758;6.096;2023-07-02T04:03:50;21.83;;;8.13;;
43042;SDS011;28667;50.758;6.096;2023-07-02T04:06:17;19.27;;;8.48;;
43042;SDS011;28667;50.758;6.096;2023-07-02T04:08:43;26.63;;;8.93;;
43042;SDS011;28667;50.758;6.096;2023-07-02T04:11:09;23.90;;;8.50;;
43042;SDS011;28667;50.758;6.096;2023-07-02T04:13:35;24.52;;;8.90;;
43042;SDS011;28667;50.758;6.096;2023-07-02T04:16:01;22.30;;;8.90;;
43042;SDS011;28667;50.758;6.096;2023-07-02T04:18:27;25.48;;;8.45;;
43042;SDS011;28667;50.758;6.096;2023-07-02T04:20:54;23.90;;;8.80;;
43042;SDS011;28667;50.758;6.096;2023-07-02T04:23:20;25.13;;;9.75;;
43042;SDS011;28667;50.758;6.096;2023-07-02T04:25:46;33.03;;;10.00;;
43042;SDS011;28667;50.758;6.096;2023-07-02T04:28:11;27.80;;;9.02;;
43042;SDS011;28667;50.758;6.096;2023-07-02T04:30:37;27.75;;;9.63;;
43042;SDS011;28667;50.758;6.096;2023-07-02T04:33:03;21.77;;;8.93;;
43042;SDS011;28667;50.758;6.096;2023-07-02T04:35:30;22.30;;;9.25;;
43042;SDS011;28667;50.758;6.096;2023-07-02T04:37:57;29.77;;;10.93;;
43042;SDS011;28667;50.758;6.096;2023-07-02T04:40:23;29.00;;;10.65;;
43042;SDS011;28667;50.758;6.096;2023-07-02T04:42:49;21.95;;;9.38;;
43042;SDS011;28667;50.758;6.096;2023-07-02T04:45:22;28.15;;;10.02;;
43042;SDS011;28667;50.758;6.096;2023-07-02T04:47:49;29.65;;;10.15;;
43042;SDS011;28667;50.758;6.096;2023-07-02T04:50:16;27.42;;;10.30;;
43042;SDS011;28667;50.758;6.096;2023-07-02T04:52:42;29.40;;;10.43;;
43042;SDS011;28667;50.758;6.096;2023-07-02T04:55:08;22.60;;;10.10;;
43042;SDS011;28667;50.758;6.096;2023-07-02T04:57:33;30.40;;;9.60;;
43042;SDS011;28667;50.758;6.096;2023-07-02T04:59:59;31.23;;;10.90;;
43042;SDS011;28667;50.758;6.096;2023-07-02T05:02:25;26.38;;;9.18;;
43042;SDS011;28667;50.758;6.096;2023-07-02T05:04:50;24.80;;;10.18;;
43042;SDS011;28667;50.758;6.096;2023-07-02T05:07:16;29.52;;;10.23;;
43042;SDS011;28667;50.758;6.096;2023-07-02T05:09:42;26.90;;;10.00;;
43042;SDS011;28667;50.758;6.096;2023-07-02T05:12:09;26.35;;;9.43;;
43042;SDS011;28667;50.758;6.096;2023-07-02T05:14:34;32.13;;;9.93;;
43042;SDS011;28667;50.758;6.096;2023-07-02T05:17:00;29.23;;;9.63;;
43042;SDS011;28667;50.758;6.096;2023-07-02T05:19:26;22.23;;;8.57;;
43042;SDS011;28667;50.758;6.096;2023-07-02T05:21:52;27.55;;;9.60;;
43042;SDS011;28667;50.758;6.096;2023-07-02T05:24:18;26.38;;;9.15;;
43042;SDS011;28667;50.758;6.096;2023-07-02T05:26:43;26.15;;;10.02;;
43042;SDS011;28667;50.758;6.096;2023-07-02T05:29:09;27.05;;;10.38;;
43042;SDS011;28667;50.758;6.096;2023-07-02T05:31:35;29.35;;;10.45;;
43042;SDS011;28667;50.758;6.096;2023-07-02T05:34:01;31.90;;;10.90;;
43042;SDS011;28667;50.758;6.096;2023-07-02T05:36:27;25.42;;;10.15;;
43042;SDS011;28667;50.758;6.096;2023-07-02T05:38:52;31.42;;;11.75;;
43042;SDS011;28667;50.758;6.096;2023-07-02T05:41:21;32.13;;;10.32;;
43042;SDS011;28667;50.758;6.096;2023-07-02T05:43:47;27.70;;;10.25;;
43042;SDS011;28667;50.758;6.096;2023-07-02T05:46:14;27.88;;;10.05;;
43042;SDS011;28667;50.758;6.096;2023-07-02T05:48:43;37.38;;;11.00;;
43042;SDS011;28667;50.758;6.096;2023-07-02T05:51:08;30.98;;;11.73;;
43042;SDS011;28667;50.758;6.096;2023-07-02T05:53:34;32.00;;;10.10;;
43042;SDS011;28667;50.758;6.096;2023-07-02T05:56:02;30.90;;;10.93;;
43042;SDS011;28667;50.758;6.096;2023-07-02T05:58:27;31.52;;;11.68;;
43042;SDS011;28667;50.758;6.096;2023-07-02T06:00:55;30.60;;;10.82;;
43042;SDS011;28667;50.758;6.096;2023-07-02T06:03:21;30.02;;;11.15;;
43042;SDS011;28667;50.758;6.096;2023-07-02T06:05:47;25.52;;;10.55;;
43042;SDS011;28667;50.758;6.096;2023-07-02T06:08:16;26.58;;;11.23;;
43042;SDS011;28667;50.758;6.096;2023-07-02T06:10:46;30.35;;;10.52;;
43042;SDS011;28667;50.758;6.096;2023-07-02T06:13:12;33.92;;;11.38;;
43042;SDS011;28667;50.758;6.096;2023-07-02T06:15:38;27.80;;;10.85;;
43042;SDS011;28667;50.758;6.096;2023-07-02T06:18:04;28.05;;;10.27;;
43042;SDS011;28667;50.758;6.096;2023-07-02T06:20:30;35.22;;;11.27;;
43042;SDS011;28667;50.758;6.096;2023-07-02T06:22:56;31.00;;;10.95;;
43042;SDS011;28667;50.758;6.096;2023-07-02T06:25:22;34.70;;;11.63;;
43042;SDS011;28667;50.758;6.096;2023-07-02T06:27:48;37.30;;;12.57;;
43042;SDS011;28667;50.758;6.096;2023-07-02T06:30:13;28.13;;;11.23;;
43042;SDS011;28667;50.758;6.096;2023-07-02T06:32:39;37.63;;;11.45;;
43042;SDS011;28667;50.758;6.096;2023-07-02T06:35:05;31.58;;;10.57;;
43042;SDS011;28667;50.758;6.096;2023-07-02T06:37:32;36.25;;;11.80;;
43042;SDS011;28667;50.758;6.096;2023-07-02T06:39:58;31.42;;;11.95;;
43042;SDS011;28667;50.758;6.096;2023-07-02T06:42:24;33.00;;;12.05;;
43042;SDS011;28667;50.758;6.096;2023-07-02T06:44:50;27.40;;;10.88;;
43042;SDS011;28667;50.758;6.096;2023-07-02T06:47:16;34.42;;;11.30;;
43042;SDS011;28667;50.758;6.096;2023-07-02T06:49:42;24.83;;;10.60;;
43042;SDS011;28667;50.758;6.096;2023-07-02T06:52:08;31.98;;;12.68;;
43042;SDS011;28667;50.758;6.096;2023-07-02T06:54:34;27.95;;;10.43;;
43042;SDS011;28667;50.758;6.096;2023-07-02T06:56:59;34.33;;;11.80;;
43042;SDS011;28667;50.758;6.096;2023-07-02T06:59:26;34.03;;;12.02;;
43042;SDS011;28667;50.758;6.096;2023-07-02T07:01:51;33.35;;;12.05;;
43042;SDS011;28667;50.758;6.096;2023-07-02T07:04:18;32.22;;;12.20;;
43042;SDS011;28667;50.758;6.096;2023-07-02T07:06:43;33.97;;;11.52;;
43042;SDS011;28667;50.758;6.096;2023-07-02T07:09:09;36.20;;;11.65;;
43042;SDS011;28667;50.758;6.096;2023-07-02T07:11:35;28.30;;;10.55;;
43042;SDS011;28667;50.758;6.096;2023-07-02T07:14:01;34.00;;;11.07;;
43042;SDS011;28667;50.758;6.096;2023-07-02T07:16:26;20.45;;;10.20;;
43042;SDS011;28667;50.758;6.096;2023-07-02T07:18:52;22.95;;;11.00;;
43042;SDS011;28667;50.758;6.096;2023-07-02T07:21:18;23.38;;;10.23;;
43042;SDS011;28667;50.758;6.096;2023-07-02T07:23:44;28.35;;;10.50;;
43042;SDS011;28667;50.758;6.096;2023-07-02T07:26:10;28.85;;;11.15;;
43042;SDS011;28667;50.758;6.096;2023-07-02T07:28:35;24.20;;;10.25;;
43042;SDS011;28667;50.758;6.096;2023-07-02T07:31:01;29.27;;;11.25;;
43042;SDS011;28667;50.758;6.096;2023-07-02T07:33:27;29.90;;;10.73;;
43042;SDS011;28667;50.758;6.096;2023-07-02T07:35:53;25.55;;;8.75;;
43042;SDS011;28667;50.758;6.096;2023-07-02T07:38:19;22.90;;;9.38;;
43042;SDS011;28667;50.758;6.096;2023-07-02T07:40:44;18.45;;;8.93;;
43042;SDS011;28667;50.758;6.096;2023-07-02T07:43:10;35.65;;;9.90;;
43042;SDS011;28667;50.758;6.096;2023-07-02T07:45:36;24.13;;;9.45;;
43042;SDS011;28667;50.758;6.096;2023-07-02T07:48:03;24.00;;;9.55;;
43042;SDS011;28667;50.758;6.096;2023-07-02T07:50:31;25.30;;;10.43;;
43042;SDS011;28667;50.758;6.096;2023-07-02T07:52:57;30.48;;;9.52;;
43042;SDS011;28667;50.758;6.096;2023-07-02T07:55:23;26.65;;;9.80;;
43042;SDS011;28667;50.758;6.096;2023-07-02T07:57:49;22.55;;;8.95;;
43042;SDS011;28667;50.758;6.096;2023-07-02T08:00:15;25.35;;;9.88;;
43042;SDS011;28667;50.758;6.096;2023-07-02T08:02:42;27.50;;;9.90;;
43042;SDS011;28667;50.758;6.096;2023-07-02T08:05:14;21.75;;;9.80;;
43042;SDS011;28667;50.758;6.096;2023-07-02T08:07:40;22.10;;;9.60;;
43042;SDS011;28667;50.758;6.096;2023-07-02T08:10:05;29.27;;;9.43;;
43042;SDS011;28667;50.758;6.096;2023-07-02T08:12:33;30.38;;;9.93;;
43042;SDS011;28667;50.758;6.096;2023-07-02T08:14:59;26.55;;;9.23;;
43042;SDS011;28667;50.758;6.096;2023-07-02T08:17:25;22.38;;;9.40;;
43042;SDS011;28667;50.758;6.096;2023-07-02T08:19:51;27.10;;;9.75;;
43042;SDS011;28667;50.758;6.096;2023-07-02T08:22:16;35.67;;;10.35;;
43042;SDS011;28667;50.758;6.096;2023-07-02T08:24:42;25.95;;;9.25;;
43042;SDS011;28667;50.758;6.096;2023-07-02T08:27:08;22.15;;;9.15;;
43042;SDS011;28667;50.758;6.096;2023-07-02T08:29:35;22.25;;;9.70;;
43042;SDS011;28667;50.758;6.096;2023-07-02T08:32:01;22.02;;;8.40;;
43042;SDS011;28667;50.758;6.096;2023-07-02T08:34:27;21.88;;;8.35;;
43042;SDS011;28667;50.758;6.096;2023-07-02T08:36:52;25.23;;;9.40;;
43042;SDS011;28667;50.758;6.096;2023-07-02T08:39:18;26.15;;;9.65;;
43042;SDS011;28667;50.758;6.096;2023-07-02T08:41:44;29.45;;;9.52;;
43042;SDS011;28667;50.758;6.096;2023-07-02T08:44:11;20.75;;;8.82;;
43042;SDS011;28667;50.758;6.096;2023-07-02T08:46:41;21.55;;;8.68;;
43042;SDS011;28667;50.758;6.096;2023-07-02T08:49:07;24.00;;;10.18;;
43042;SDS011;28667;50.758;6.096;2023-07-02T08:51:34;25.77;;;10.02;;
43042;SDS011;28667;50.758;6.096;2023-07-02T08:54:00;21.88;;;8.68;;
43042;SDS011;28667;50.758;6.096;2023-07-02T08:56:27;28.25;;;9.68;;
43042;SDS011;28667;50.758;6.096;2023-07-02T08:58:53;26.50;;;9.70;;
43042;SDS011;28667;50.758;6.096;2023-07-02T09:01:18;20.77;;;8.63;;
43042;SDS011;28667;50.758;6.096;2023-07-02T09:03:44;23.77;;;8.95;;
43042;SDS011;28667;50.758;6.096;2023-07-02T09:06:12;23.20;;;8.65;;
43042;SDS011;28667;50.758;6.096;2023-07-02T09:08:38;21.48;;;8.32;;
43042;SDS011;28667;50.758;6.096;2023-07-02T09:11:06;21.42;;;7.82;;
43042;SDS011;28667;50.758;6.096;2023-07-02T09:13:41;19.13;;;8.07;;
43042;SDS011;28667;50.758;6.096;2023-07-02T09:19:06;25.35;;;8.20;;
43042;SDS011;28667;50.758;6.096;2023-07-02T09:21:41;25.48;;;8.73;;
43042;SDS011;28667;50.758;6.096;2023-07-02T09:24:27;23.85;;;9.05;;
43042;SDS011;28667;50.758;6.096;2023-07-02T09:26:58;23.25;;;8.05;;
43042;SDS011;28667;50.758;6.096;2023-07-02T09:29:26;18.90;;;8.32;;
43042;SDS011;28667;50.758;6.096;2023-07-02T09:32:03;26.63;;;8.57;;
43042;SDS011;28667;50.758;6.096;2023-07-02T09:34:36;22.02;;;8.45;;
43042;SDS011;28667;50.758;6.096;2023-07-02T09:37:05;22.40;;;8.27;;
43042;SDS011;28667;50.758;6.096;2023-07-02T09:39:31;24.92;;;9.32;;
43042;SDS011;28667;50.758;6.096;2023-07-02T09:41:59;19.52;;;7.70;;
43042;SDS011;28667;50.758;6.096;2023-07-02T09:44:27;22.17;;;8.82;;
43042;SDS011;28667;50.758;6.096;2023-07-02T09:49:36;26.35;;;9.82;;
43042;SDS011;28667;50.758;6.096;2023-07-02T09:52:04;18.60;;;7.80;;
43042;SDS011;28667;50.758;6.096;2023-07-02T09:54:31;21.63;;;7.55;;
43042;SDS011;28667;50.758;6.096;2023-07-02T09:56:57;16.30;;;6.95;;
43042;SDS011;28667;50.758;6.096;2023-07-02T09:59:24;16.70;;;7.10;;
43042;SDS011;28667;50.758;6.096;2023-07-02T10:01:50;19.90;;;7.05;;
43042;SDS011;28667;50.758;6.096;2023-07-02T10:04:17;15.15;;;6.55;;
43042;SDS011;28667;50.758;6.096;2023-07-02T10:06:51;22.52;;;8.10;;
43042;SDS011;28667;50.758;6.096;2023-07-02T10:09:33;16.27;;;6.63;;
43042;SDS011;28667;50.758;6.096;2023-07-02T10:12:15;19.30;;;7.22;;
43042;SDS011;28667;50.758;6.096;2023-07-02T10:14:45;24.00;;;7.90;;
43042;SDS011;28667;50.758;6.096;2023-07-02T10:19:54;13.95;;;6.50;;
43042;SDS011;28667;50.758;6.096;2023-07-02T10:22:23;16.00;;;7.05;;
43042;SDS011;28667;50.758;6.096;2023-07-02T10:24:56;18.45;;;7.35;;
43042;SDS011;28667;50.758;6.096;2023-07-02T10:30:01;19.55;;;7.20;;
43042;SDS011;28667;50.758;6.096;2023-07-02T10:32:32;18.75;;;7.28;;
43042;SDS011;28667;50.758;6.096;2023-07-02T10:34:59;19.13;;;6.45;;
43042;SDS011;28667;50.758;6.096;2023-07-02T10:37:45;23.10;;;6.95;;
43042;SDS011;28667;50.758;6.096;2023-07-02T10:40:11;18.63;;;7.55;;
43042;SDS011;28667;50.758;6.096;2023-07-02T10:42:44;14.50;;;6.55;;
43042;SDS011;28667;50.758;6.096;2023-07-02T10:45:17;21.15;;;7.22;;
43042;SDS011;28667;50.758;6.096;2023-07-02T10:47:44;24.30;;;8.02;;
43042;SDS011;28667;50.758;6.096;2023-07-02T10:50:17;19.58;;;7.43;;
43042;SDS011;28667;50.758;6.096;2023-07-02T10:52:44;14.30;;;7.43;;
43042;SDS011;28667;50.758;6.096;2023-07-02T10:55:15;21.45;;;8.05;;
43042;SDS011;28667;50.758;6.096;2023-07-02T10:57:45;24.17;;;8.13;;
43042;SDS011;28667;50.758;6.096;2023-07-02T11:44:36;19.20;;;7.53;;
43042;SDS011;28667;50.758;6.096;2023-07-02T11:47:02;18.65;;;7.30;;
43042;SDS011;28667;50.758;6.096;2023-07-02T11:49:28;19.77;;;7.38;;
43042;SDS011;28667;50.758;6.096;2023-07-02T11:51:54;13.13;;;6.80;;
43042;SDS011;28667;50.758;6.096;2023-07-02T11:54:20;15.52;;;6.90;;
43042;SDS011;28667;50.758;6.096;2023-07-02T11:56:45;16.45;;;6.50;;
43042;SDS011;28667;50.758;6.096;2023-07-02T11:59:11;16.65;;;6.60;;
43042;SDS011;28667;50.758;6.096;2023-07-02T12:01:38;17.65;;;6.20;;
43042;SDS011;28667;50.758;6.096;2023-07-02T12:04:04;18.35;;;6.70;;
43042;SDS011;28667;50.758;6.096;2023-07-02T12:06:31;14.70;;;6.43;;
43042;SDS011;28667;50.758;6.096;2023-07-02T12:08:56;17.20;;;5.72;;
43042;SDS011;28667;50.758;6.096;2023-07-02T12:11:22;14.20;;;5.78;;
43042;SDS011;28667;50.758;6.096;2023-07-02T12:13:48;20.05;;;6.57;;
43042;SDS011;28667;50.758;6.096;2023-07-02T12:16:13;20.38;;;5.45;;
43042;SDS011;28667;50.758;6.096;2023-07-02T12:18:39;19.05;;;6.15;;
43042;SDS011;28667;50.758;6.096;2023-07-02T12:21:05;17.48;;;6.40;;
43042;SDS011;28667;50.758;6.096;2023-07-02T12:23:31;19.83;;;5.93;;
43042;SDS011;28667;50.758;6.096;2023-07-02T12:25:56;13.55;;;5.53;;
43042;SDS011;28667;50.758;6.096;2023-07-02T12:28:22;14.35;;;6.13;;
43042;SDS011;28667;50.758;6.096;2023-07-02T12:30:48;16.02;;;6.60;;
43042;SDS011;28667;50.758;6.096;2023-07-02T12:33:14;19.27;;;6.80;;
43042;SDS011;28667;50.758;6.096;2023-07-02T12:35:40;19.27;;;6.00;;
43042;SDS011;28667;50.758;6.096;2023-07-02T12:38:06;14.07;;;6.63;;
43042;SDS011;28667;50.758;6.096;2023-07-02T12:40:33;16.00;;;6.20;;
43042;SDS011;28667;50.758;6.096;2023-07-02T12:42:59;15.18;;;6.93;;
43042;SDS011;28667;50.758;6.096;2023-07-02T12:45:25;16.20;;;6.68;;
43042;SDS011;28667;50.758;6.096;2023-07-02T12:47:51;16.40;;;5.93;;
43042;SDS011;28667;50.758;6.096;2023-07-02T12:50:16;14.18;;;6.82;;
43042;SDS011;28667;50.758;6.096;2023-07-02T12:52:42;16.63;;;6.57;;
43042;SDS011;28667;50.758;6.096;2023-07-02T12:55:08;14.60;;;6.90;;
43042;SDS011;28667;50.758;6.096;2023-07-02T12:57:34;17.60;;;6.45;;
43042;SDS011;28667;50.758;6.096;2023-07-02T13:00:00;15.73;;;6.35;;
43042;SDS011;28667;50.758;6.096;2023-07-02T13:02:26;18.23;;;6.82;;
43042;SDS011;28667;50.758;6.096;2023-07-02T13:04:51;21.25;;;7.20;;
43042;SDS011;28667;50.758;6.096;2023-07-02T13:07:17;20.50;;;6.22;;
43042;SDS011;28667;50.758;6.096;2023-07-02T13:09:43;17.45;;;6.43;;
43042;SDS011;28667;50.758;6.096;2023-07-02T13:12:12;18.05;;;6.82;;
43042;SDS011;28667;50.758;6.096;2023-07-02T13:14:38;17.58;;;7.07;;
43042;SDS011;28667;50.758;6.096;2023-07-02T13:17:04;14.85;;;6.25;;
43042;SDS011;28667;50.758;6.096;2023-07-02T13:19:30;22.50;;;6.13;;
43042;SDS011;28667;50.758;6.096;2023-07-02T13:21:56;26.40;;;8.30;;
43042;SDS011;28667;50.758;6.096;2023-07-02T13:24:22;15.20;;;6.93;;
43042;SDS011;28667;50.758;6.096;2023-07-02T13:26:48;19.00;;;6.82;;
43042;SDS011;28667;50.758;6.096;2023-07-02T13:29:13;20.98;;;7.45;;
43042;SDS011;28667;50.758;6.096;2023-07-02T13:31:39;16.27;;;6.57;;
43042;SDS011;28667;50.758;6.096;2023-07-02T13:34:05;14.60;;;5.68;;
43042;SDS011;28667;50.758;6.096;2023-07-02T13:36:31;18.17;;;6.80;;
43042;SDS011;28667;50.758;6.096;2023-07-02T13:38:57;14.90;;;6.25;;
43042;SDS011;28667;50.758;6.096;2023-07-02T13:41:23;20.38;;;6.55;;
43042;SDS011;28667;50.758;6.096;2023-07-02T13:43:48;19.45;;;6.72;;
43042;SDS011;28667;50.758;6.096;2023-07-02T13:46:14;20.80;;;6.68;;
43042;SDS011;28667;50.758;6.096;2023-07-02T13:48:40;13.88;;;6.70;;
43042;SDS011;28667;50.758;6.096;2023-07-02T13:51:06;15.25;;;6.13;;
43042;SDS011;28667;50.758;6.096;2023-07-02T13:53:33;20.92;;;6.32;;
43042;SDS011;28667;50.758;6.096;2023-07-02T13:55:59;13.43;;;5.88;;
43042;SDS011;28667;50.758;6.096;2023-07-02T13:58:25;17.38;;;6.63;;
43042;SDS011;28667;50.758;6.096;2023-07-02T14:00:51;15.18;;;6.22;;
43042;SDS011;28667;50.758;6.096;2023-07-02T14:03:16;15.65;;;6.85;;
43042;SDS011;28667;50.758;6.096;2023-07-02T14:05:42;20.85;;;6.38;;
43042;SDS011;28667;50.758;6.096;2023-07-02T14:08:09;15.82;;;6.78;;
43042;SDS011;28667;50.758;6.096;2023-07-02T14:10:34;16.70;;;6.93;;
43042;SDS011;28667;50.758;6.096;2023-07-02T14:13:00;24.40;;;6.93;;
43042;SDS011;28667;50.758;6.096;2023-07-02T14:15:26;14.70;;;6.53;;
43042;SDS011;28667;50.758;6.096;2023-07-02T14:17:52;21.08;;;6.57;;
43042;SDS011;28667;50.758;6.096;2023-07-02T14:20:19;17.77;;;6.97;;
43042;SDS011;28667;50.758;6.096;2023-07-02T14:22:45;16.38;;;6.38;;
43042;SDS011;28667;50.758;6.096;2023-07-02T14:25:11;17.27;;;6.60;;
43042;SDS011;28667;50.758;6.096;2023-07-02T14:27:37;14.65;;;6.63;;
43042;SDS011;28667;50.758;6.096;2023-07-02T14:30:03;14.70;;;6.22;;
43042;SDS011;28667;50.758;6.096;2023-07-02T14:32:33;19.88;;;6.35;;
43042;SDS011;28667;50.758;6.096;2023-07-02T14:35:01;19.17;;;6.22;;
43042;SDS011;28667;50.758;6.096;2023-07-02T14:37:28;14.82;;;5.78;;
43042;SDS011;28667;50.758;6.096;2023-07-02T14:39:53;17.33;;;5.95;;
43042;SDS011;28667;50.758;6.096;2023-07-02T14:42:19;19.27;;;6.95;;
43042;SDS011;28667;50.758;6.096;2023-07-02T14:44:45;14.23;;;6.03;;
43042;SDS011;28667;50.758;6.096;2023-07-02T14:47:11;17.15;;;5.68;;
43042;SDS011;28667;50.758;6.096;2023-07-02T14:49:37;15.27;;;5.95;;
43042;SDS011;28667;50.758;6.096;2023-07-02T14:52:03;13.35;;;6.32;;
43042;SDS011;28667;50.758;6.096;2023-07-02T14:54:29;13.30;;;6.40;;
43042;SDS011;28667;50.758;6.096;2023-07-02T14:56:55;13.95;;;5.85;;
43042;SDS011;28667;50.758;6.096;2023-07-02T14:59:21;14.18;;;5.85;;
43042;SDS011;28667;50.758;6.096;2023-07-02T15:01:47;13.85;;;5.70;;
43042;SDS011;28667;50.758;6.096;2023-07-02T15:04:12;17.30;;;6.45;;
43042;SDS011;28667;50.758;6.096;2023-07-02T15:06:38;13.30;;;5.30;;
43042;SDS011;28667;50.758;6.096;2023-07-02T15:09:04;12.98;;;5.55;;
43042;SDS011;28667;50.758;6.096;2023-07-02T15:11:30;18.58;;;6.28;;
43042;SDS011;28667;50.758;6.096;2023-07-02T15:13:55;12.45;;;5.78;;
43042;SDS011;28667;50.758;6.096;2023-07-02T15:16:23;16.92;;;6.30;;
43042;SDS011;28667;50.758;6.096;2023-07-02T15:18:48;12.70;;;6.03;;
43042;SDS011;28667;50.758;6.096;2023-07-02T15:21:14;13.15;;;5.25;;
43042;SDS011;28667;50.758;6.096;2023-07-02T15:23:41;18.52;;;6.72;;
43042;SDS011;28667;50.758;6.096;2023-07-02T15:26:07;14.90;;;6.10;;